Time;durP1;ratioP1;P1;durP2;ratioP2;P2;SDS_P1;SDS_P2;PMS_P1;PMS_P2;Temp;Humidity;BMP_temperature;BMP_pressure;BME280_temperature;BME280_humidity;BME280_pressure;Samples;Min_cycle;Max_cycle;Signal;HPM_P1;HPM_P2
2022/02/09 00:00:27;;;;;;;6.10;3.20;;;;;;;20.45;41.89;102371.19;5034785;28;20125;-68
2022/02/09 00:03:13;;;;;;;8.18;3.25;;;;;;;20.46;41.94;102369.38;5017093;28;20060;-69
2022/02/09 00:05:46;;;;;;;6.97;3.25;;;;;;;20.42;41.89;102382.06;5014415;28;20042;-69
2022/02/09 00:08:12;;;;;;;4.45;2.97;;;;;;;20.38;42.14;102375.38;5013587;28;20481;-69
2022/02/09 00:10:41;;;;;;;3.65;2.60;;;;;;;20.38;42.03;102369.25;5023953;28;21617;-68
2022/02/09 00:15:45;;;;;;;3.92;2.85;;;;;;;20.27;41.98;102367.63;5019686;28;20103;-68
2022/02/09 00:18:51;;;;;;;6.18;3.13;;;;;;;20.25;42.23;102356.34;5013698;28;20033;-68
2022/02/09 00:32:01;;;;;;;4.03;2.80;;;;;;;20.15;42.39;102374.94;5017425;28;20037;-69
2022/02/09 01:38:10;;;;;;;4.07;2.80;;;;;;;19.69;42.77;102370.44;5019307;28;20057;-68
2022/02/09 01:43:56;;;;;;;7.72;2.65;;;;;;;19.66;42.89;102380.47;5021776;28;20530;-69
2022/02/09 01:56:52;;;;;;;5.40;2.75;;;;;;;19.59;42.98;102370.47;5017186;28;20103;-68
2022/02/09 01:59:18;;;;;;;4.93;2.83;;;;;;;19.58;42.97;102358.22;5019163;28;20306;-68
2022/02/09 02:01:44;;;;;;;4.22;2.40;;;;;;;19.54;43.02;102354.16;5014635;28;20472;-68
2022/02/09 02:04:09;;;;;;;7.15;2.72;;;;;;;19.52;43.00;102358.72;5021004;28;20358;-69
2022/02/09 02:06:44;;;;;;;4.88;2.67;;;;;;;19.51;43.06;102354.44;5029603;28;20049;-68
2022/02/09 02:09:10;;;;;;;4.65;2.50;;;;;;;19.50;42.87;102350.13;5013639;28;20037;-69
2022/02/09 02:11:45;;;;;;;5.60;2.70;;;;;;;19.53;42.85;102360.41;5023818;28;20049;-69
2022/02/09 03:09:18;;;;;;;3.72;2.45;;;;;;;19.31;42.96;102292.84;5013355;28;20073;-69
2022/02/09 03:14:20;;;;;;;4.22;2.50;;;;;;;19.26;43.24;102289.81;5013914;28;20037;-69
2022/02/09 03:16:55;;;;;;;3.35;2.92;;;;;;;19.21;43.13;102278.84;5020780;28;20370;-69
2022/02/09 03:22:15;;;;;;;5.47;2.63;;;;;;;19.28;43.10;102287.84;5019134;28;20442;-69
2022/02/09 03:59:07;;;;;;;4.15;2.65;;;;;;;19.15;43.05;102263.53;5015082;28;20410;-68
2022/02/09 04:01:36;;;;;;;4.28;2.78;;;;;;;19.15;43.27;102268.00;5021291;28;20853;-69
2022/02/09 04:04:02;;;;;;;5.57;2.45;;;;;;;19.03;43.21;102246.19;5013539;28;20041;-69
2022/02/09 04:06:33;;;;;;;4.72;2.50;;;;;;;19.15;43.25;102273.28;5020573;28;20041;-68
2022/02/09 04:09:00;;;;;;;5.15;2.88;;;;;;;19.13;43.22;102262.84;5014690;28;20404;-69
2022/02/09 04:11:32;;;;;;;5.97;2.72;;;;;;;19.13;43.07;102265.50;5019798;28;20575;-68
2022/02/09 04:14:16;;;;;;;4.35;2.33;;;;;;;19.14;43.05;102251.31;5014194;28;20045;-69
2022/02/09 04:23:00;;;;;;;5.97;2.53;;;;;;;19.12;43.17;102239.22;5016776;28;20044;-68
2022/02/09 04:36:31;;;;;;;4.85;2.63;;;;;;;19.02;43.12;102231.31;5015153;28;20048;-70
2022/02/09 04:44:09;;;;;;;3.47;2.28;;;;;;;19.04;43.28;102242.59;5019367;28;20281;-71
2022/02/09 04:50:18;;;;;;;3.85;2.17;;;;;;;19.00;43.21;102226.16;5030070;28;20107;-70
2022/02/09 05:00:15;;;;;;;3.13;2.10;;;;;;;18.95;43.31;102223.13;5015199;28;20164;-70
2022/02/09 05:28:43;;;;;;;4.63;2.20;;;;;;;18.96;43.02;102223.97;5022323;28;20042;-70
2022/02/09 05:31:09;;;;;;;3.83;2.30;;;;;;;18.97;43.25;102226.44;5018242;28;20106;-70
2022/02/09 05:33:35;;;;;;;3.72;2.10;;;;;;;18.93;43.29;102211.03;5023360;28;20634;-70
2022/02/09 05:36:02;;;;;;;5.72;2.60;;;;;;;18.94;43.10;102223.28;5016430;28;20029;-70
2022/02/09 05:38:27;;;;;;;3.45;2.08;;;;;;;18.86;43.17;102213.41;5019808;28;20467;-70
2022/02/09 05:40:53;;;;;;;4.68;2.03;;;;;;;18.92;43.28;102212.84;5023973;28;20111;-70
2022/02/09 05:43:21;;;;;;;4.07;2.10;;;;;;;18.93;43.11;102214.50;5017566;28;20045;-70
2022/02/09 05:51:28;;;;;;;3.55;2.20;;;;;;;18.91;43.41;102200.63;5024113;28;20041;-70
2022/02/09 05:54:03;;;;;;;3.97;2.20;;;;;;;18.89;43.28;102197.31;5019397;28;20059;-70
2022/02/09 06:01:30;;;;;;;4.57;2.20;;;;;;;18.92;43.34;102202.28;5019610;28;20053;-70
2022/02/09 06:03:55;;;;;;;4.85;2.03;;;;;;;18.87;43.44;102193.13;5021570;28;20101;-70
2022/02/09 06:06:21;;;;;;;3.17;1.90;;;;;;;18.80;43.44;102187.56;5021870;28;20478;-70
2022/02/09 06:08:47;;;;;;;3.65;1.98;;;;;;;18.85;43.42;102197.69;5021254;28;20044;-70
2022/02/09 06:11:42;;;;;;;5.18;2.22;;;;;;;18.87;43.31;102208.97;5028684;28;20551;-70
2022/02/09 06:21:56;;;;;;;4.47;2.40;;;;;;;19.38;42.55;102203.31;5012456;28;20044;-70
2022/02/09 06:24:22;;;;;;;2.33;1.85;;;;;;;19.66;42.33;102206.88;5020262;28;20049;-70
2022/02/09 06:26:48;;;;;;;3.28;2.00;;;;;;;19.77;41.67;102195.28;5019931;28;20048;-70
2022/02/09 06:29:14;;;;;;;3.45;2.08;;;;;;;19.92;41.42;102204.38;5004556;28;21266;-70
2022/02/09 06:31:40;;;;;;;3.42;2.00;;;;;;;19.96;41.58;102208.41;5019194;28;20049;-70
2022/02/09 06:34:08;;;;;;;5.40;2.30;;;;;;;19.98;41.64;102205.63;5021819;28;20049;-70
2022/02/09 06:36:40;;;;;;;4.38;1.73;;;;;;;20.00;41.95;102203.66;5019719;28;20041;-70
2022/02/09 06:39:07;;;;;;;3.30;2.00;;;;;;;19.94;41.85;102196.31;5017454;28;20057;-70
2022/02/09 06:41:33;;;;;;;3.90;2.00;;;;;;;19.95;41.81;102195.34;5006357;28;20044;-70
2022/02/09 06:43:59;;;;;;;5.00;2.53;;;;;;;19.91;41.48;102192.13;5032250;28;20475;-70
2022/02/09 06:46:25;;;;;;;2.65;1.90;;;;;;;19.94;41.58;102188.38;5023599;28;20093;-70
2022/02/09 06:48:51;;;;;;;2.45;1.85;;;;;;;19.96;41.63;102189.91;5029559;28;20041;-70
2022/02/09 06:51:20;;;;;;;3.20;2.05;;;;;;;19.96;41.37;102189.91;5018378;28;20465;-70
2022/02/09 06:54:02;;;;;;;2.72;2.08;;;;;;;20.01;41.58;102189.47;5019733;28;20357;-70
2022/02/09 06:57:27;;;;;;;4.80;2.10;;;;;;;20.02;41.48;102191.94;5011422;28;20463;-70
2022/02/09 07:01:46;;;;;;;4.22;1.95;;;;;;;20.10;41.56;102186.72;5014744;28;20147;-70
2022/02/09 07:04:11;;;;;;;2.65;1.63;;;;;;;20.11;41.63;102191.06;5012691;28;20050;-70
2022/02/09 07:06:37;;;;;;;2.55;1.50;;;;;;;20.12;41.47;102197.19;5016238;28;20061;-69
2022/02/09 07:09:03;;;;;;;1.90;1.70;;;;;;;20.14;41.40;102200.53;5023901;28;20036;-70
2022/02/09 07:11:29;;;;;;;3.55;1.85;;;;;;;20.12;41.37;102208.59;5013251;28;20037;-70
2022/02/09 07:13:55;;;;;;;3.70;1.98;;;;;;;20.10;41.41;102209.72;5017973;28;20059;-70
2022/02/09 07:16:21;;;;;;;2.50;1.52;;;;;;;20.09;41.43;102208.03;5015247;28;20064;-70
2022/02/09 07:18:48;;;;;;;3.38;1.98;;;;;;;20.09;41.68;102206.22;5013496;28;20522;-70
2022/02/09 07:21:19;;;;;;;2.70;1.70;;;;;;;20.06;41.67;102205.69;5016147;28;20065;-70
2022/02/09 07:23:49;;;;;;;3.15;1.80;;;;;;;20.00;41.70;102193.09;5016458;28;20064;-69
2022/02/09 07:26:19;;;;;;;4.13;1.70;;;;;;;20.03;41.52;102203.34;5019965;28;20873;-68
2022/02/09 07:28:46;;;;;;;2.40;1.75;;;;;;;20.07;41.74;102180.91;5016736;28;20453;-67
2022/02/09 07:31:12;;;;;;;2.63;1.70;;;;;;;20.15;41.50;102202.19;5024949;28;20040;-70
2022/02/09 07:33:40;;;;;;;2.70;1.73;;;;;;;20.11;41.29;102195.53;5017413;28;20037;-69
2022/02/09 07:36:07;;;;;;;2.33;1.80;;;;;;;20.17;41.59;102197.56;5022985;28;20039;-67
2022/02/09 07:38:33;;;;;;;3.90;1.77;;;;;;;20.19;41.43;102204.38;5016084;28;20218;-70
2022/02/09 07:41:00;;;;;;;4.18;1.55;;;;;;;20.26;41.32;102203.75;5028773;28;20057;-70
2022/02/09 07:48:53;;;;;;;2.60;1.80;;;;;;;20.36;41.47;102199.25;5014307;28;20148;-67
2022/02/09 07:56:25;;;;;;;4.00;1.73;;;;;;;20.33;41.25;102203.03;5018005;28;20497;-67
2022/02/09 07:58:51;;;;;;;4.80;1.85;;;;;;;20.28;41.32;102189.41;5015943;28;20057;-67
2022/02/09 08:01:17;;;;;;;2.85;1.40;;;;;;;20.29;41.24;102203.47;5013852;28;20029;-70
2022/02/09 08:03:43;;;;;;;3.60;2.42;;;;;;;20.15;41.56;102187.16;5012644;28;20376;-70
2022/02/09 08:06:09;;;;;;;3.83;1.80;;;;;;;20.22;41.52;102211.19;5014653;28;20567;-70
2022/02/09 08:08:35;;;;;;;1.67;1.40;;;;;;;20.10;41.54;102189.38;5013896;28;20067;-67
2022/02/09 08:35:01;;;;;;;2.28;1.60;;;;;;;20.13;42.06;102194.41;5016531;28;20195;-70
2022/02/09 08:37:27;;;;;;;3.67;1.60;;;;;;;20.11;41.66;102199.00;5019382;28;20029;-69
2022/02/09 08:39:54;;;;;;;2.50;1.70;;;;;;;20.11;41.92;102195.53;5015383;28;20052;-69
2022/02/09 08:42:20;;;;;;;3.75;1.92;;;;;;;20.10;41.78;102197.31;5014360;28;20363;-70
2022/02/09 08:44:46;;;;;;;2.60;1.70;;;;;;;20.10;41.72;102199.13;5016929;28;20056;-67
2022/02/09 08:47:12;;;;;;;2.97;1.58;;;;;;;20.08;41.90;102182.59;5013512;28;20053;-70
2022/02/09 08:49:37;;;;;;;2.35;1.40;;;;;;;20.18;41.38;102196.59;5016782;28;20040;-69
2022/02/09 08:52:05;;;;;;;4.40;1.38;;;;;;;20.22;41.60;102198.78;5013878;28;20140;-70
2022/02/09 08:54:31;;;;;;;2.17;1.58;;;;;;;20.29;41.31;102192.88;5015454;28;20060;-69
2022/02/09 08:56:58;;;;;;;3.10;1.60;;;;;;;20.31;41.21;102196.25;5011753;28;20038;-69
2022/02/09 08:59:27;;;;;;;3.50;1.95;;;;;;;20.36;41.32;102201.91;5017609;28;20132;-69
2022/02/09 09:02:06;;;;;;;1.83;1.15;;;;;;;20.27;41.31;102184.28;5014061;28;20137;-69
2022/02/09 09:04:52;;;;;;;5.30;1.77;;;;;;;20.35;41.22;102202.88;5016745;28;20069;-69
2022/02/09 09:07:33;;;;;;;4.72;1.85;;;;;;;20.33;41.37;102210.13;5025532;28;20054;-69
2022/02/09 09:10:10;;;;;;;2.03;1.63;;;;;;;20.32;41.30;102203.19;5019359;28;20052;-69
2022/02/09 09:31:41;;;;;;;3.78;1.48;;;;;;;20.08;41.49;102194.00;5014822;28;20041;-68
2022/02/09 10:34:45;;;;;;;2.60;1.17;;;;;;;20.20;42.36;102218.44;5014454;28;20038;-62
2022/02/09 10:37:10;;;;;;;2.65;1.40;;;;;;;20.26;42.48;102227.56;5007619;28;20044;-62
2022/02/09 10:40:02;;;;;;;4.60;1.90;;;;;;;20.28;42.55;102226.44;5003462;28;20488;-63
2022/02/09 10:42:48;;;;;;;3.85;1.58;;;;;;;20.25;42.65;102221.44;4994916;28;20438;-64
2022/02/09 10:45:48;;;;;;;3.10;1.40;;;;;;;20.13;42.39;102206.78;5012966;28;20084;-62
2022/02/09 10:48:35;;;;;;;2.95;1.50;;;;;;;20.16;42.56;102225.84;4981500;28;20046;-61
2022/02/09 10:51:22;;;;;;;1.75;1.35;;;;;;;20.19;42.38;102225.53;5011979;28;20037;-62
2022/02/09 10:54:14;;;;;;;4.05;1.77;;;;;;;20.19;42.91;102230.81;4992556;28;20420;-64
2022/02/09 10:56:51;;;;;;;1.73;1.48;;;;;;;20.26;43.03;102233.69;5012106;28;20396;-66
2022/02/09 10:59:21;;;;;;;2.03;1.75;;;;;;;20.26;43.16;102222.28;4993303;28;20554;-66
2022/02/09 11:01:46;;;;;;;4.15;1.63;;;;;;;20.36;43.25;102233.66;5015913;28;20312;-67
2022/02/09 11:04:13;;;;;;;5.88;1.73;;;;;;;20.29;42.43;102232.56;4996841;28;20040;-66
2022/02/09 11:06:47;;;;;;;2.60;1.25;;;;;;;20.29;43.03;102225.50;5017646;28;20398;-63
2022/02/09 11:09:15;;;;;;;2.35;1.40;;;;;;;20.17;42.01;102203.69;5013426;28;20049;-64
2022/02/09 11:11:42;;;;;;;3.60;1.70;;;;;;;20.27;42.23;102222.13;4990771;28;20033;-64
2022/02/09 11:14:13;;;;;;;3.10;1.80;;;;;;;20.27;41.84;102221.31;5010045;28;20456;-63
2022/02/09 11:16:40;;;;;;;4.63;1.75;;;;;;;20.27;41.99;102221.31;4992203;28;20042;-64
2022/02/09 11:19:06;;;;;;;6.35;2.13;;;;;;;20.27;42.17;102216.00;5015808;28;20041;-63
2022/02/09 11:21:36;;;;;;;1.45;1.30;;;;;;;20.34;42.21;102219.75;4988035;28;20511;-64
2022/02/09 11:24:22;;;;;;;2.65;1.20;;;;;;;20.36;42.09;102225.72;5008717;28;20081;-64
2022/02/09 11:27:13;;;;;;;3.88;1.33;;;;;;;20.35;42.05;102224.88;5015225;28;20052;-64
2022/02/09 11:32:44;;;;;;;2.20;1.60;;;;;;;20.30;42.46;102215.75;4998807;28;20041;-63
2022/02/09 11:35:21;;;;;;;1.98;1.45;;;;;;;20.37;42.68;102225.56;5015316;28;20075;-63
2022/02/09 11:46:23;;;;;;;4.32;1.70;;;;;;;20.60;42.76;102236.56;5028662;28;20445;-65
2022/02/09 12:09:33;;;;;;;6.82;2.40;;;;;;;20.61;42.80;102216.22;4980191;28;20048;-68
2022/02/09 12:12:03;;;;;;;6.60;2.60;;;;;;;21.51;41.46;102217.75;4997914;28;20036;-66
2022/02/09 12:20:19;;;;;;;3.63;2.13;;;;;;;22.01;40.23;102215.16;5003460;28;20064;-63
2022/02/09 12:22:51;;;;;;;7.15;2.53;;;;;;;21.96;40.13;102214.81;5013620;28;20092;-63
2022/02/09 12:25:16;;;;;;;6.50;2.28;;;;;;;21.95;40.26;102215.81;4994054;28;20060;-63
2022/02/09 12:27:49;;;;;;;3.67;2.10;;;;;;;21.90;40.31;102208.34;4969170;28;20072;-63
2022/02/09 12:30:20;;;;;;;4.13;2.03;;;;;;;21.92;40.37;102208.19;5013690;28;20128;-63
2022/02/09 12:32:46;;;;;;;3.55;2.13;;;;;;;21.93;40.29;102223.09;5000890;28;20033;-63
2022/02/09 12:35:13;;;;;;;4.20;2.20;;;;;;;21.88;40.27;102215.59;4982892;28;20971;-63
2022/02/09 12:37:44;;;;;;;6.05;2.38;;;;;;;21.77;40.70;102210.59;5012729;28;20052;-63
2022/02/09 12:40:14;;;;;;;7.97;1.90;;;;;;;21.66;40.74;102211.72;5010812;28;20061;-63
2022/02/09 12:42:48;;;;;;;9.07;2.40;;;;;;;21.55;41.14;102216.47;4976535;28;20034;-63
2022/02/09 12:45:28;;;;;;;7.63;2.22;;;;;;;21.55;40.60;102193.44;5016130;28;20029;-63
2022/02/09 12:47:56;;;;;;;7.30;2.00;;;;;;;21.63;40.81;102222.63;4987563;28;20086;-63
2022/02/09 12:50:30;;;;;;;5.22;1.95;;;;;;;22.11;40.51;102218.56;5009956;28;20049;-63
2022/02/09 12:52:55;;;;;;;8.27;1.80;;;;;;;22.19;40.14;102209.78;4992597;28;20033;-66
2022/02/09 12:55:29;;;;;;;6.05;2.60;;;;;;;22.30;40.35;102228.06;4990069;28;20427;-67
2022/02/09 12:58:00;;;;;;;5.55;2.20;;;;;;;22.29;39.89;102218.44;4987749;28;20366;-68
2022/02/09 13:00:41;;;;;;;6.35;2.53;;;;;;;22.40;39.88;102220.78;4990074;28;20662;-65
2022/02/09 13:03:21;;;;;;;9.88;2.78;;;;;;;22.38;40.31;102209.50;5003851;28;20073;-63
2022/02/09 13:05:48;;;;;;;4.82;2.20;;;;;;;22.47;40.18;102213.84;5004135;28;20049;-68
2022/02/09 13:08:19;;;;;;;4.35;2.30;;;;;;;22.46;40.24;102212.19;4996337;28;20429;-69
2022/02/09 13:10:45;;;;;;;5.60;2.25;;;;;;;22.50;39.87;102216.16;4984417;28;20029;-67
2022/02/09 13:13:13;;;;;;;5.18;2.25;;;;;;;22.55;39.83;102213.00;4995459;28;20095;-67
2022/02/09 13:15:49;;;;;;;4.43;2.38;;;;;;;22.63;39.85;102212.19;4991581;28;20044;-66
2022/02/09 14:54:55;;;;;;;4.57;2.22;;;;;;;22.73;40.43;102245.53;4993930;28;20115;-71
2022/02/09 14:57:29;;;;;;;4.57;2.00;;;;;;;22.77;40.55;102240.72;5006269;28;20041;-73
2022/02/09 15:06:25;;;;;;;4.93;2.08;;;;;;;22.85;40.18;102262.03;5025817;28;20057;-65
2022/02/09 15:10:42;;;;;;;4.35;1.73;;;;;;;22.90;40.20;102252.56;4994125;28;21247;-69
2022/02/09 15:23:43;;;;;;;3.08;1.88;;;;;;;22.99;40.23;102261.38;5009398;28;20037;-66
2022/02/09 15:26:09;;;;;;;7.57;2.13;;;;;;;22.83;40.45;102270.16;5007494;28;20263;-63
2022/02/09 15:28:36;;;;;;;4.40;1.95;;;;;;;22.76;40.50;102271.75;4993771;28;20038;-63
2022/02/09 15:33:38;;;;;;;3.50;1.92;;;;;;;22.70;40.47;102267.13;5001981;28;20070;-63
2022/02/09 15:36:08;;;;;;;3.92;2.15;;;;;;;22.69;40.27;102261.97;5017890;28;20402;-64
2022/02/09 15:38:44;;;;;;;3.38;2.45;;;;;;;22.61;40.21;102262.78;4991977;28;21967;-64
2022/02/09 15:57:23;;;;;;;4.22;2.33;;;;;;;22.50;40.04;102277.22;5015618;28;20041;-63
2022/02/09 16:05:37;;;;;;;4.00;1.90;;;;;;;22.50;40.09;102279.88;4989782;28;20037;-64
2022/02/09 16:11:12;;;;;;;4.25;2.08;;;;;;;22.45;39.86;102276.03;5015764;28;20145;-64
2022/02/09 16:17:00;;;;;;;4.18;1.92;;;;;;;22.38;40.21;102285.63;4986879;28;20828;-63
2022/02/09 16:22:13;;;;;;;6.97;2.22;;;;;;;22.45;39.96;102284.84;5015070;28;20087;-66
2022/02/09 16:46:20;;;;;;;3.05;1.83;;;;;;;22.65;40.48;102279.25;4995193;28;20045;-68
2022/02/09 16:49:12;;;;;;;4.95;1.90;;;;;;;22.68;40.78;102290.34;5015390;28;20140;-62
2022/02/09 16:51:44;;;;;;;6.07;2.80;;;;;;;22.56;39.96;102284.50;4986062;28;20299;-62
2022/02/09 16:54:26;;;;;;;5.18;2.30;;;;;;;22.47;40.44;102289.97;5014684;28;20047;-64
2022/02/09 17:21:12;;;;;;;4.18;2.58;;;;;;;22.29;40.45;102296.22;5006995;28;20044;-66
2022/02/09 17:23:38;;;;;;;3.90;2.03;;;;;;;22.31;40.34;102290.75;5002596;28;20353;-66
2022/02/09 17:26:04;;;;;;;2.85;2.10;;;;;;;22.29;40.28;102298.88;5015744;28;20435;-67
2022/02/09 17:28:30;;;;;;;9.30;2.67;;;;;;;22.29;40.11;102287.44;5003389;28;20566;-67
2022/02/09 17:33:52;;;;;;;5.72;2.85;;;;;;;22.27;40.32;102292.09;4997606;28;20076;-66
2022/02/09 17:36:39;;;;;;;4.25;2.47;;;;;;;22.36;39.98;102284.97;5016598;28;20136;-66
2022/02/09 17:58:19;;;;;;;5.22;2.97;;;;;;;22.26;39.78;102293.03;5019526;28;20068;-66
2022/02/09 18:00:48;;;;;;;4.00;2.50;;;;;;;22.23;40.14;102294.19;4996421;28;20045;-66
2022/02/09 18:03:15;;;;;;;4.18;2.33;;;;;;;22.21;40.18;102290.88;5022687;28;20056;-67
2022/02/09 18:05:47;;;;;;;3.13;2.42;;;;;;;22.23;39.83;102278.28;4997160;28;20091;-66
2022/02/09 18:08:35;;;;;;;5.53;2.20;;;;;;;22.17;39.84;102278.94;5016082;28;20041;-66
2022/02/09 18:11:25;;;;;;;6.03;2.60;;;;;;;22.19;40.08;102278.75;4985924;28;20545;-66
2022/02/09 18:30:18;;;;;;;4.57;2.60;;;;;;;21.93;40.60;102284.94;5016488;28;20033;-67
2022/02/09 18:43:25;;;;;;;4.18;2.58;;;;;;;22.43;40.25;102289.44;4980031;28;20038;-71
2022/02/09 18:46:00;;;;;;;5.68;2.88;;;;;;;22.45;40.07;102282.19;5021039;28;20044;-67
2022/02/09 18:59:31;;;;;;;5.60;2.95;;;;;;;22.60;40.06;102274.38;4988289;28;20092;-67
2022/02/09 19:31:10;;;;;;;7.18;2.80;;;;;;;22.47;40.01;102263.44;4992109;28;20147;-66
2022/02/09 19:53:57;;;;;;;6.53;3.00;;;;;;;22.68;39.87;102261.16;5022693;28;20503;-63
2022/02/09 19:55:58;;;;;;;5.28;2.88;;;;;;;22.70;40.20;102260.97;4995844;28;20045;-63
2022/02/09 19:58:34;;;;;;;5.03;2.63;;;;;;;22.68;40.03;102261.16;4993599;28;20134;-66
2022/02/09 20:01:00;;;;;;;6.03;3.20;;;;;;;22.65;40.08;102258.81;4989695;28;20546;-66
2022/02/09 20:03:25;;;;;;;9.27;3.35;;;;;;;22.72;40.10;102259.81;4993313;28;20154;-65
2022/02/09 20:05:51;;;;;;;5.90;2.75;;;;;;;22.67;40.24;102256.00;4999604;28;20123;-67
2022/02/09 20:08:16;;;;;;;4.07;2.80;;;;;;;22.71;40.45;102266.13;4994138;28;20451;-66
2022/02/09 20:10:42;;;;;;;7.53;2.92;;;;;;;22.77;39.96;102269.94;4987292;28;20045;-65
2022/02/09 20:13:08;;;;;;;6.85;2.70;;;;;;;22.78;39.95;102260.97;5017846;28;20300;-67
2022/02/09 20:15:34;;;;;;;7.00;2.70;;;;;;;22.80;40.35;102261.63;4975111;28;20320;-66
2022/02/09 20:17:59;;;;;;;4.55;2.63;;;;;;;22.83;40.31;102266.69;5030122;28;20510;-67
2022/02/09 20:20:28;;;;;;;6.10;2.88;;;;;;;22.81;40.12;102266.81;4975088;28;21299;-68
2022/02/09 20:22:55;;;;;;;6.20;2.60;;;;;;;22.85;40.11;102262.84;5013699;28;21515;-67
2022/02/09 20:25:22;;;;;;;10.60;3.42;;;;;;;22.92;40.25;102258.53;4979387;28;20574;-65
2022/02/09 20:27:51;;;;;;;7.45;2.75;;;;;;;23.08;39.63;102259.53;5014582;28;20037;-65
2022/02/09 20:30:20;;;;;;;6.28;2.70;;;;;;;22.96;39.74;102252.88;4981925;28;20045;-67
2022/02/09 20:32:51;;;;;;;6.47;3.37;;;;;;;22.87;40.00;102247.59;5015698;28;20037;-69
2022/02/09 20:35:18;;;;;;;6.50;2.85;;;;;;;;;;4974235;28;20530;-67
2022/02/09 20:37:48;;;;;;;8.25;3.08;;;;;;;22.87;40.34;102241.44;5013723;28;20046;-64
2022/02/09 20:40:22;;;;;;;6.30;3.30;;;;;;;22.85;40.09;102238.94;4981473;28;20072;-64
2022/02/09 20:42:57;;;;;;;7.50;2.92;;;;;;;22.86;40.02;102242.44;5012597;28;20545;-69
2022/02/09 20:45:43;;;;;;;6.07;3.10;;;;;;;22.83;40.32;102240.94;4976711;28;20049;-63
2022/02/09 20:48:14;;;;;;;6.25;3.85;;;;;;;22.76;39.65;102247.88;5019527;28;20544;-66
2022/02/09 20:50:40;;;;;;;8.32;4.20;;;;;;;22.70;40.30;102237.91;4979013;28;20041;-63
2022/02/09 20:53:06;;;;;;;5.65;3.30;;;;;;;22.77;40.13;102233.59;5010541;28;20052;-64
2022/02/09 20:55:32;;;;;;;11.40;3.30;;;;;;;22.80;39.98;102235.94;4965320;28;20917;-69
2022/02/09 20:57:58;;;;;;;7.35;3.85;;;;;;;22.86;40.25;102242.44;5012419;28;20248;-67
2022/02/09 21:03:13;;;;;;;5.60;3.10;;;;;;;22.83;40.17;102225.00;4998269;28;20042;-66
2022/02/09 21:13:46;;;;;;;6.85;2.97;;;;;;;22.88;40.10;102221.84;4993843;28;20041;-64
2022/02/09 21:26:34;;;;;;;4.85;2.60;;;;;;;22.66;40.51;102222.47;4997056;28;20053;-64
2022/02/09 21:45:09;;;;;;;5.00;2.95;;;;;;;22.53;40.55;102193.75;5029279;28;20045;-63
2022/02/09 21:58:08;;;;;;;5.78;3.25;;;;;;;22.48;40.44;102188.94;4987184;28;20052;-63
2022/02/09 22:45:46;;;;;;;5.10;2.97;;;;;;;22.27;40.21;102152.28;5015105;28;20046;-63
2022/02/09 22:54:24;;;;;;;6.60;3.38;;;;;;;22.08;40.68;102128.66;5014297;28;20056;-63
2022/02/09 22:56:27;;;;;;;7.13;3.67;;;;;;;22.24;40.25;102141.13;5018554;28;20103;-63
2022/02/09 22:58:53;;;;;;;7.45;3.40;;;;;;;22.20;40.33;102145.94;5020198;28;20604;-63
2022/02/09 23:01:31;;;;;;;7.25;3.45;;;;;;;22.14;40.14;102136.00;5014723;28;20037;-63
2022/02/09 23:14:38;;;;;;;5.40;3.33;;;;;;;21.97;40.60;102135.09;5022421;28;20124;-63
2022/02/09 23:28:24;;;;;;;6.22;3.45;;;;;;;21.84;40.82;102120.63;5010042;28;20065;-63
